Time;durP1;ratioP1;P1;durP2;ratioP2;P2;SDS_P1;SDS_P2;PMS_P1;PMS_P2;Temp;Humidity;BMP_temperature;BMP_pressure;BME280_temperature;BME280_humidity;BME280_pressure;Samples;Min_cycle;Max_cycle;Signal;HPM_P1;HPM_P2
2023/07/12 00:01:26;;;;;;;4.07;1.83;;;;;;;;;;5089605;27;20078;-51
2023/07/12 00:03:52;;;;;;;7.32;2.00;;;;;;;;;;5088909;27;20542;-52
2023/07/12 00:06:23;;;;;;;6.65;2.28;;;;;;;;;;5094114;27;20501;-52
2023/07/12 00:08:50;;;;;;;3.70;1.77;;;;;;;;;;5088367;27;20440;-52
2023/07/12 00:11:17;;;;;;;6.50;2.15;;;;;;;;;;5086844;27;20620;-52
2023/07/12 00:13:43;;;;;;;4.35;1.67;;;;;;;;;;5087871;27;20387;-52
2023/07/12 00:16:29;;;;;;;4.35;1.63;;;;;;;;;;5088785;27;20037;-52
2023/07/12 00:18:57;;;;;;;4.53;1.98;;;;;;;;;;5081668;27;20531;-52
2023/07/12 00:21:25;;;;;;;3.17;1.52;;;;;;;;;;5095708;27;20044;-52
2023/07/12 00:23:55;;;;;;;5.13;1.67;;;;;;;;;;5096119;27;20043;-52
2023/07/12 00:26:23;;;;;;;6.30;1.98;;;;;;;;;;5091592;27;20524;-51
2023/07/12 00:28:49;;;;;;;4.57;2.25;;;;;;;;;;5091890;27;20544;-52
2023/07/12 00:31:15;;;;;;;5.75;1.88;;;;;;;;;;5090462;27;20848;-52
2023/07/12 00:33:41;;;;;;;6.72;2.10;;;;;;;;;;5091234;27;20547;-53
2023/07/12 00:36:33;;;;;;;4.57;1.95;;;;;;;;;;5091890;27;20611;-52
2023/07/12 00:39:00;;;;;;;5.28;1.65;;;;;;;;;;5070611;27;20056;-52
2023/07/12 00:41:45;;;;;;;6.53;2.33;;;;;;;;;;5092154;27;20131;-52
2023/07/12 00:44:13;;;;;;;5.82;1.90;;;;;;;;;;5092585;27;20074;-51
2023/07/12 00:46:47;;;;;;;4.40;1.60;;;;;;;;;;5091005;27;20051;-52
2023/07/12 00:49:13;;;;;;;5.20;2.00;;;;;;;;;;5091481;27;20520;-52
2023/07/12 00:51:57;;;;;;;5.65;2.15;;;;;;;;;;5091601;27;20038;-52
2023/07/12 00:54:26;;;;;;;5.90;2.25;;;;;;;;;;5092063;27;20051;-52
2023/07/12 00:56:52;;;;;;;7.30;2.33;;;;;;;;;;5091327;27;20044;-52
2023/07/12 00:59:22;;;;;;;4.70;2.10;;;;;;;;;;5091663;27;20535;-52
2023/07/12 01:01:49;;;;;;;7.45;2.70;;;;;;;;;;5087057;28;20100;-52
2023/07/12 01:04:18;;;;;;;3.50;2.22;;;;;;;;;;5091961;27;20040;-52
2023/07/12 01:06:44;;;;;;;5.38;2.22;;;;;;;;;;5087948;28;20123;-51
2023/07/12 01:09:12;;;;;;;4.95;2.00;;;;;;;;;;5092597;27;20132;-52
2023/07/12 01:11:39;;;;;;;4.97;2.08;;;;;;;;;;5088175;28;20090;-52
2023/07/12 01:14:10;;;;;;;4.13;2.05;;;;;;;;;;5092001;27;20124;-52
2023/07/12 01:16:36;;;;;;;9.68;2.15;;;;;;;;;;5091958;27;20051;-52
2023/07/12 01:19:02;;;;;;;5.35;1.92;;;;;;;;;;5091525;27;20196;-52
2023/07/12 01:21:32;;;;;;;5.53;2.42;;;;;;;;;;5091265;27;20044;-52
2023/07/12 01:23:58;;;;;;;11.70;2.25;;;;;;;;;;5091610;27;20040;-52
2023/07/12 01:26:32;;;;;;;3.95;2.22;;;;;;;;;;5092446;27;20059;-52
2023/07/12 01:28:59;;;;;;;6.00;2.70;;;;;;;;;;5090558;27;20048;-52
2023/07/12 01:31:26;;;;;;;3.78;3.10;;;;;;;;;;5092039;27;20040;-52
2023/07/12 01:33:53;;;;;;;8.43;4.78;;;;;;;;;;5092263;27;20048;-52
2023/07/12 01:36:19;;;;;;;2.95;1.23;;;;;;;;;;5090489;27;20164;-52
2023/07/12 01:38:46;;;;;;;2.58;1.20;;;;;;;;;;5090436;27;20084;-52
2023/07/12 01:41:13;;;;;;;1.73;0.77;;;;;;;;;;5091777;27;20637;-52
2023/07/12 01:43:39;;;;;;;0.95;0.43;;;;;;;;;;5091693;27;20089;-52
2023/07/12 01:46:05;;;;;;;0.32;0.32;;;;;;;;;;5090350;27;20389;-52
2023/07/12 01:48:32;;;;;;;0.82;0.40;;;;;;;;;;5089960;27;20734;-51
2023/07/12 01:50:58;;;;;;;1.42;0.70;;;;;;;;;;5071998;28;20099;-52
2023/07/12 01:53:25;;;;;;;0.75;0.60;;;;;;;;;;5079321;27;20042;-52
2023/07/12 01:55:51;;;;;;;1.98;0.50;;;;;;;;;;5091669;27;20040;-52
2023/07/12 01:58:17;;;;;;;1.25;0.60;;;;;;;;;;5091370;27;20047;-52
2023/07/12 02:00:43;;;;;;;0.75;0.50;;;;;;;;;;5086834;28;20579;-52
2023/07/12 02:03:09;;;;;;;1.13;0.50;;;;;;;;;;5090604;27;20569;-51
2023/07/12 02:05:35;;;;;;;1.67;0.85;;;;;;;;;;5090452;27;20496;-52
2023/07/12 02:08:01;;;;;;;0.75;0.50;;;;;;;;;;5090692;27;20097;-52
2023/07/12 02:10:46;;;;;;;0.80;0.45;;;;;;;;;;5090081;27;20037;-52
2023/07/12 02:13:12;;;;;;;1.05;0.45;;;;;;;;;;5090061;27;20578;-52
2023/07/12 02:26:56;;;;;;;3.15;0.98;;;;;;;;;;5090113;27;20045;-51
2023/07/12 02:29:22;;;;;;;4.65;0.80;;;;;;;;;;5086990;27;20048;-52
2023/07/12 02:31:48;;;;;;;2.35;0.80;;;;;;;;;;5089974;27;20109;-51
2023/07/12 02:34:14;;;;;;;1.33;0.80;;;;;;;;;;5089105;27;20515;-52
2023/07/12 02:36:41;;;;;;;1.73;0.88;;;;;;;;;;5090247;27;20093;-51
2023/07/12 02:39:07;;;;;;;2.42;0.80;;;;;;;;;;5089883;27;20073;-52
2023/07/12 02:41:33;;;;;;;1.75;0.63;;;;;;;;;;5089197;27;20492;-52
2023/07/12 02:43:59;;;;;;;1.63;0.93;;;;;;;;;;5089511;27;20147;-52
2023/07/12 02:46:25;;;;;;;1.80;0.85;;;;;;;;;;5089777;27;20059;-52
2023/07/12 02:48:51;;;;;;;1.55;0.85;;;;;;;;;;5089693;27;20045;-51
2023/07/12 02:51:17;;;;;;;1.30;0.80;;;;;;;;;;5087956;27;20075;-52
2023/07/12 02:53:43;;;;;;;1.15;0.70;;;;;;;;;;5090384;27;20043;-51
2023/07/12 02:56:09;;;;;;;2.47;0.70;;;;;;;;;;5089189;27;20055;-51
2023/07/12 02:58:35;;;;;;;1.42;0.70;;;;;;;;;;5089467;27;20087;-52
2023/07/12 03:01:02;;;;;;;3.30;0.80;;;;;;;;;;5088407;27;20041;-51
2023/07/12 03:03:28;;;;;;;1.08;0.70;;;;;;;;;;5088334;27;20048;-51
2023/07/12 03:05:55;;;;;;;6.68;1.27;;;;;;;;;;5089177;27;20094;-52
2023/07/12 03:08:21;;;;;;;1.55;0.70;;;;;;;;;;5089210;27;20045;-52
2023/07/12 03:10:47;;;;;;;3.22;0.85;;;;;;;;;;5089615;27;20094;-51
2023/07/12 03:13:13;;;;;;;1.42;0.77;;;;;;;;;;5088325;27;20032;-51
2023/07/12 03:15:39;;;;;;;1.92;0.98;;;;;;;;;;5089943;27;20105;-52
2023/07/12 03:18:05;;;;;;;3.50;1.27;;;;;;;;;;5089336;27;20079;-52
2023/07/12 03:20:35;;;;;;;3.67;1.42;;;;;;;;;;5088961;27;20150;-52
2023/07/12 03:23:01;;;;;;;3.80;1.45;;;;;;;;;;5090751;27;20666;-52
2023/07/12 03:25:27;;;;;;;4.78;1.67;;;;;;;;;;5089200;27;20043;-51
2023/07/12 03:27:53;;;;;;;5.55;2.33;;;;;;;;;;5078604;28;20041;-52
2023/07/12 03:30:19;;;;;;;4.20;1.77;;;;;;;;;;5089536;27;20108;-51
2023/07/12 03:32:45;;;;;;;4.10;1.67;;;;;;;;;;5090071;27;20119;-51
2023/07/12 03:35:12;;;;;;;4.05;1.42;;;;;;;;;;5089272;27;20036;-52
2023/07/12 03:37:38;;;;;;;8.45;1.58;;;;;;;;;;5089264;27;20163;-51
2023/07/12 03:40:04;;;;;;;5.28;2.10;;;;;;;;;;5090350;27;20545;-51
2023/07/12 03:42:30;;;;;;;5.30;1.63;;;;;;;;;;5088882;27;20543;-52
2023/07/12 03:44:56;;;;;;;6.45;1.73;;;;;;;;;;5090555;27;20064;-52
2023/07/12 03:47:22;;;;;;;5.53;1.73;;;;;;;;;;5088185;27;20079;-52
2023/07/12 03:49:48;;;;;;;7.57;1.83;;;;;;;;;;5089176;27;21239;-52
2023/07/12 03:52:14;;;;;;;5.97;1.70;;;;;;;;;;5091949;27;20221;-51
2023/07/12 03:54:41;;;;;;;5.63;2.67;;;;;;;;;;5089958;27;20055;-51
2023/07/12 03:57:07;;;;;;;4.68;1.83;;;;;;;;;;5088878;27;20053;-52
2023/07/12 03:59:33;;;;;;;7.15;2.03;;;;;;;;;;5089406;27;20036;-52
2023/07/12 04:01:59;;;;;;;2.50;1.20;;;;;;;;;;5089083;27;20052;-51
2023/07/12 04:04:25;;;;;;;4.78;1.60;;;;;;;;;;5088618;27;20106;-51
2023/07/12 04:06:51;;;;;;;5.82;1.88;;;;;;;;;;5089942;27;20075;-52
2023/07/12 04:09:18;;;;;;;3.08;1.42;;;;;;;;;;5089242;27;21150;-52
2023/07/12 04:11:44;;;;;;;3.80;1.60;;;;;;;;;;5087595;27;20124;-52
2023/07/12 04:14:10;;;;;;;2.70;1.40;;;;;;;;;;5089470;27;20044;-52
2023/07/12 04:16:36;;;;;;;5.07;1.40;;;;;;;;;;5088986;27;20159;-51
2023/07/12 04:19:02;;;;;;;4.68;1.80;;;;;;;;;;5089115;27;20065;-52
2023/07/12 04:21:28;;;;;;;6.63;2.13;;;;;;;;;;5087658;27;20055;-52
2023/07/12 04:23:54;;;;;;;4.15;1.42;;;;;;;;;;5087860;27;20041;-52
2023/07/12 04:26:21;;;;;;;5.20;1.38;;;;;;;;;;5088532;27;20146;-51
2023/07/12 04:28:49;;;;;;;3.97;1.60;;;;;;;;;;5088707;27;20048;-52
2023/07/12 04:31:16;;;;;;;6.30;2.13;;;;;;;;;;5088561;27;20037;-52
2023/07/12 04:33:42;;;;;;;6.53;2.28;;;;;;;;;;5088470;27;20036;-52
2023/07/12 04:36:09;;;;;;;5.75;1.73;;;;;;;;;;5088967;27;20594;-52
2023/07/12 04:38:36;;;;;;;8.60;1.58;;;;;;;;;;5088177;27;20273;-52
2023/07/12 04:41:02;;;;;;;4.20;2.00;;;;;;;;;;5088091;27;20091;-51
2023/07/12 04:43:29;;;;;;;6.47;2.33;;;;;;;;;;5089287;27;20041;-51
2023/07/12 04:45:55;;;;;;;5.72;2.15;;;;;;;;;;5088342;27;20117;-52
2023/07/12 04:48:21;;;;;;;9.75;3.25;;;;;;;;;;5087983;27;20036;-52
2023/07/12 04:50:51;;;;;;;3.95;1.80;;;;;;;;;;5088737;27;20111;-51
2023/07/12 04:53:18;;;;;;;3.95;1.80;;;;;;;;;;5088676;27;20040;-52
2023/07/12 04:55:44;;;;;;;5.95;1.92;;;;;;;;;;5092137;27;20643;-51
2023/07/12 04:58:10;;;;;;;4.32;1.92;;;;;;;;;;5087938;27;20044;-52
2023/07/12 05:00:36;;;;;;;6.95;3.22;;;;;;;;;;5084652;28;20043;-52
2023/07/12 05:03:02;;;;;;;4.13;1.80;;;;;;;;;;5085225;27;20052;-51
2023/07/12 05:05:28;;;;;;;3.17;1.63;;;;;;;;;;5091468;27;20040;-52
2023/07/12 05:07:54;;;;;;;6.90;1.80;;;;;;;;;;5092483;27;20712;-51
2023/07/12 05:10:21;;;;;;;3.45;1.50;;;;;;;;;;5091898;27;20052;-52
2023/07/12 05:12:47;;;;;;;4.80;1.77;;;;;;;;;;5091699;27;20036;-52
2023/07/12 05:15:15;;;;;;;4.72;1.65;;;;;;;;;;5091575;27;20041;-52
2023/07/12 05:17:41;;;;;;;10.63;2.50;;;;;;;;;;5091535;27;20044;-52
2023/07/12 05:20:10;;;;;;;8.13;2.75;;;;;;;;;;5091428;27;20052;-52
2023/07/12 05:22:36;;;;;;;4.78;1.77;;;;;;;;;;5091075;27;20062;-55
2023/07/12 05:25:03;;;;;;;5.18;1.58;;;;;;;;;;5094908;27;20063;-52
2023/07/12 05:27:29;;;;;;;6.28;2.25;;;;;;;;;;5089359;27;20664;-52
2023/07/12 05:29:55;;;;;;;7.40;2.47;;;;;;;;;;5089593;27;20459;-52
2023/07/12 05:32:21;;;;;;;3.33;1.60;;;;;;;;;;5090330;27;20043;-52
2023/07/12 05:34:47;;;;;;;3.83;1.70;;;;;;;;;;5088985;27;20036;-52
2023/07/12 05:37:13;;;;;;;5.05;1.85;;;;;;;;;;5089986;27;20044;-51
2023/07/12 05:39:40;;;;;;;3.92;1.75;;;;;;;;;;5090462;27;20032;-52
2023/07/12 05:42:07;;;;;;;5.93;1.85;;;;;;;;;;5089427;27;20070;-52
2023/07/12 05:44:33;;;;;;;6.93;2.03;;;;;;;;;;5091712;27;20044;-51
2023/07/12 05:46:59;;;;;;;4.00;1.73;;;;;;;;;;5090604;27;20051;-51
2023/07/12 05:49:25;;;;;;;8.38;1.77;;;;;;;;;;5092867;27;20040;-51
2023/07/12 05:51:51;;;;;;;5.50;1.88;;;;;;;;;;5092206;27;20044;-51
2023/07/12 05:54:18;;;;;;;7.50;2.47;;;;;;;;;;5092004;27;20472;-52
2023/07/12 05:56:44;;;;;;;7.60;1.80;;;;;;;;;;5091675;27;20047;-51
2023/07/12 05:59:10;;;;;;;8.07;2.50;;;;;;;;;;5092297;27;20597;-51
2023/07/12 06:01:36;;;;;;;7.63;2.70;;;;;;;;;;5092376;27;20075;-51
2023/07/12 06:04:03;;;;;;;4.35;1.80;;;;;;;;;;5090610;27;20788;-51
2023/07/12 06:06:29;;;;;;;9.07;2.70;;;;;;;;;;5094814;27;20048;-51
2023/07/12 06:08:55;;;;;;;5.45;1.98;;;;;;;;;;5080351;27;20051;-51
2023/07/12 06:11:21;;;;;;;3.03;1.85;;;;;;;;;;5091726;27;20041;-51
2023/07/12 06:13:47;;;;;;;4.95;1.60;;;;;;;;;;5089368;27;20040;-51
2023/07/12 06:16:13;;;;;;;6.63;1.95;;;;;;;;;;5086862;27;20743;-52
2023/07/12 06:18:39;;;;;;;4.00;1.98;;;;;;;;;;5090129;27;20071;-52
2023/07/12 06:21:09;;;;;;;6.82;2.00;;;;;;;;;;5090513;27;20119;-52
2023/07/12 06:23:36;;;;;;;3.08;1.83;;;;;;;;;;5088919;27;20036;-51
2023/07/12 06:26:02;;;;;;;4.03;1.40;;;;;;;;;;5089844;27;20037;-52
2023/07/12 06:28:28;;;;;;;4.65;1.77;;;;;;;;;;5089751;27;20099;-51
2023/07/12 06:30:54;;;;;;;4.78;1.50;;;;;;;;;;5089082;27;20040;-51
2023/07/12 06:33:20;;;;;;;3.65;1.85;;;;;;;;;;5089242;27;22044;-51
2023/07/12 06:35:46;;;;;;;8.15;2.22;;;;;;;;;;5089900;27;20097;-51
2023/07/12 06:38:13;;;;;;;3.90;2.00;;;;;;;;;;5088645;27;20116;-51
2023/07/12 06:40:39;;;;;;;5.03;1.67;;;;;;;;;;5094646;27;20036;-52
2023/07/12 06:43:05;;;;;;;5.50;1.48;;;;;;;;;;5089613;27;20037;-52
2023/07/12 06:45:32;;;;;;;3.35;1.40;;;;;;;;;;5088584;27;20069;-51
2023/07/12 06:47:59;;;;;;;7.15;2.45;;;;;;;;;;5088305;27;20060;-51
2023/07/12 06:50:25;;;;;;;2.95;1.70;;;;;;;;;;5088289;27;20036;-51
2023/07/12 06:52:51;;;;;;;3.78;1.70;;;;;;;;;;5087647;27;20046;-52
2023/07/12 06:55:17;;;;;;;3.20;1.95;;;;;;;;;;5087901;27;20527;-51
2023/07/12 06:57:43;;;;;;;4.82;1.52;;;;;;;;;;5089833;27;20571;-51
2023/07/12 07:00:10;;;;;;;4.68;1.60;;;;;;;;;;5090107;27;20174;-52
2023/07/12 07:02:37;;;;;;;3.97;1.73;;;;;;;;;;5091153;27;20406;-51
2023/07/12 07:05:04;;;;;;;3.55;1.70;;;;;;;;;;5090917;27;20040;-52
2023/07/12 07:07:30;;;;;;;4.35;2.03;;;;;;;;;;5091018;27;20036;-52
2023/07/12 07:09:56;;;;;;;6.15;1.77;;;;;;;;;;5091115;27;20121;-52
2023/07/12 07:12:23;;;;;;;3.08;1.58;;;;;;;;;;5091503;27;20048;-51
2023/07/12 07:14:49;;;;;;;4.00;1.65;;;;;;;;;;5090954;27;20048;-52
2023/07/12 07:17:15;;;;;;;5.95;2.17;;;;;;;;;;5095451;27;20032;-52
2023/07/12 07:19:41;;;;;;;3.75;1.42;;;;;;;;;;5090855;27;20090;-52
2023/07/12 07:22:07;;;;;;;4.93;2.03;;;;;;;;;;5090844;27;20044;-52
2023/07/12 07:24:33;;;;;;;8.25;2.22;;;;;;;;;;5090746;27;20040;-52
2023/07/12 07:26:59;;;;;;;6.82;1.60;;;;;;;;;;5090558;27;20036;-52
2023/07/12 07:29:25;;;;;;;5.13;1.75;;;;;;;;;;5090924;27;20080;-52
2023/07/12 07:31:51;;;;;;;3.67;1.45;;;;;;;;;;5091174;27;20592;-51
2023/07/12 07:34:18;;;;;;;5.47;2.03;;;;;;;;;;5090935;27;20098;-51
2023/07/12 07:36:44;;;;;;;4.82;1.85;;;;;;;;;;5090226;27;20045;-52
2023/07/12 07:39:10;;;;;;;4.97;2.30;;;;;;;;;;5090778;27;20054;-52
2023/07/12 07:41:36;;;;;;;3.90;1.30;;;;;;;;;;5091193;27;20052;-51
2023/07/12 07:44:02;;;;;;;9.55;2.05;;;;;;;;;;5089816;27;20045;-52
2023/07/12 07:46:28;;;;;;;3.58;1.20;;;;;;;;;;5090760;27;20588;-51
2023/07/12 07:48:54;;;;;;;2.88;1.42;;;;;;;;;;5090205;27;20067;-52
2023/07/12 07:51:20;;;;;;;2.85;1.65;;;;;;;;;;5090765;27;20827;-52
2023/07/12 07:53:46;;;;;;;6.55;1.65;;;;;;;;;;5090113;27;20076;-51
2023/07/12 07:56:12;;;;;;;5.50;2.05;;;;;;;;;;5091051;27;20052;-52
2023/07/12 07:58:40;;;;;;;5.47;1.50;;;;;;;;;;5090502;27;20044;-52
2023/07/12 08:01:06;;;;;;;4.70;1.80;;;;;;;;;;5090529;27;20055;-51
2023/07/12 08:03:33;;;;;;;8.23;2.05;;;;;;;;;;5089873;27;20087;-51
2023/07/12 08:06:06;;;;;;;6.50;1.73;;;;;;;;;;5090677;27;20045;-52
2023/07/12 08:08:33;;;;;;;5.68;1.45;;;;;;;;;;5090007;27;20100;-52
2023/07/12 08:11:00;;;;;;;6.22;1.70;;;;;;;;;;5086675;27;20065;-52
2023/07/12 08:13:26;;;;;;;5.88;1.30;;;;;;;;;;5090811;27;20100;-52
2023/07/12 08:15:54;;;;;;;2.30;1.40;;;;;;;;;;5090016;27;20554;-52
2023/07/12 08:18:21;;;;;;;4.00;1.52;;;;;;;;;;5090251;27;20040;-52
2023/07/12 08:20:47;;;;;;;5.03;1.20;;;;;;;;;;5089651;27;20064;-52
2023/07/12 08:23:13;;;;;;;2.53;1.38;;;;;;;;;;5089982;27;20047;-52
2023/07/12 08:25:39;;;;;;;2.67;1.10;;;;;;;;;;5090472;27;20048;-52
2023/07/12 08:28:05;;;;;;;2.92;1.35;;;;;;;;;;5090446;27;20036;-52
2023/07/12 08:30:31;;;;;;;3.40;1.13;;;;;;;;;;5089587;27;20542;-52
2023/07/12 08:32:57;;;;;;;3.80;1.33;;;;;;;;;;5089955;27;20039;-51
2023/07/12 08:35:23;;;;;;;3.55;1.77;;;;;;;;;;5090105;27;20229;-52
2023/07/12 08:37:49;;;;;;;4.15;1.20;;;;;;;;;;5089694;27;20047;-52
2023/07/12 08:40:15;;;;;;;3.63;1.50;;;;;;;;;;5093103;27;20538;-51
2023/07/12 08:42:43;;;;;;;3.03;1.25;;;;;;;;;;5093284;27;20040;-52
2023/07/12 08:45:33;;;;;;;3.22;1.10;;;;;;;;;;5093496;27;20520;-52
2023/07/12 08:48:03;;;;;;;3.67;1.23;;;;;;;;;;5086399;27;20100;-52
2023/07/12 08:50:32;;;;;;;8.80;1.73;;;;;;;;;;5091852;27;20052;-52
2023/07/12 08:52:58;;;;;;;3.95;2.38;;;;;;;;;;5093156;27;20086;-52
2023/07/12 08:55:25;;;;;;;4.40;1.30;;;;;;;;;;5092807;27;20093;-51
2023/07/12 08:57:56;;;;;;;6.82;1.70;;;;;;;;;;5093011;27;20148;-52
2023/07/12 09:00:26;;;;;;;4.10;1.00;;;;;;;;;;5093371;27;20516;-52
2023/07/12 09:02:52;;;;;;;2.40;1.13;;;;;;;;;;5093576;27;20128;-52
2023/07/12 09:05:24;;;;;;;7.03;1.67;;;;;;;;;;5093121;27;20540;-52
2023/07/12 09:07:50;;;;;;;5.20;1.30;;;;;;;;;;5081233;27;20120;-52
2023/07/12 09:10:36;;;;;;;5.03;1.33;;;;;;;;;;5093725;27;20121;-52
2023/07/12 09:13:02;;;;;;;2.08;1.17;;;;;;;;;;5079855;27;20535;-51
2023/07/12 09:15:37;;;;;;;3.65;1.10;;;;;;;;;;5093205;27;20123;-52
2023/07/12 09:18:06;;;;;;;3.35;1.25;;;;;;;;;;5092906;27;20463;-52
2023/07/12 09:20:32;;;;;;;3.38;1.00;;;;;;;;;;5092060;27;20041;-52
2023/07/12 09:22:59;;;;;;;3.60;1.10;;;;;;;;;;5092924;27;20051;-52
2023/07/12 09:25:27;;;;;;;2.65;1.73;;;;;;;;;;5093033;27;20578;-52
2023/07/12 09:27:54;;;;;;;7.05;1.38;;;;;;;;;;5092856;27;21024;-52
2023/07/12 09:30:22;;;;;;;3.70;0.82;;;;;;;;;;5092110;27;20047;-51
2023/07/12 09:32:49;;;;;;;3.03;1.05;;;;;;;;;;5093014;27;20123;-51
2023/07/12 09:35:28;;;;;;;3.25;1.30;;;;;;;;;;5092028;27;20033;-52
2023/07/12 09:38:01;;;;;;;2.20;0.90;;;;;;;;;;5092022;27;20051;-52
2023/07/12 09:40:37;;;;;;;2.80;1.05;;;;;;;;;;5088626;27;20076;-52
2023/07/12 09:43:14;;;;;;;3.38;1.25;;;;;;;;;;5092318;27;20554;-52
2023/07/12 09:45:42;;;;;;;3.53;1.15;;;;;;;;;;5092258;27;20745;-52
2023/07/12 09:48:29;;;;;;;4.35;1.63;;;;;;;;;;5092338;27;20048;-52
2023/07/12 09:51:12;;;;;;;2.70;1.33;;;;;;;;;;5092294;27;20056;-52
2023/07/12 09:53:46;;;;;;;2.58;1.75;;;;;;;;;;5092090;27;20059;-51
2023/07/12 09:56:18;;;;;;;3.58;1.38;;;;;;;;;;5091425;27;20037;-52
2023/07/12 09:58:48;;;;;;;7.63;1.35;;;;;;;;;;5092189;27;20040;-52
2023/07/12 10:01:31;;;;;;;4.28;1.20;;;;;;;;;;5096694;27;20056;-52
2023/07/12 10:03:59;;;;;;;4.15;1.17;;;;;;;;;;5092470;27;20058;-52
2023/07/12 10:06:32;;;;;;;5.38;1.25;;;;;;;;;;5092048;27;20048;-52
2023/07/12 10:09:01;;;;;;;2.08;1.10;;;;;;;;;;5092201;27;20059;-52
2023/07/12 10:11:36;;;;;;;5.55;1.17;;;;;;;;;;5092026;27;20119;-52
2023/07/12 10:14:09;;;;;;;5.50;1.10;;;;;;;;;;5092328;27;20070;-52
2023/07/12 10:16:39;;;;;;;5.80;2.05;;;;;;;;;;5091920;27;20040;-52
2023/07/12 10:19:14;;;;;;;4.93;1.30;;;;;;;;;;5096190;27;20539;-52
2023/07/12 10:21:40;;;;;;;2.65;1.45;;;;;;;;;;5091480;27;20052;-52
2023/07/12 10:24:11;;;;;;;2.60;1.25;;;;;;;;;;5091862;27;20458;-52
2023/07/12 10:26:37;;;;;;;1.95;0.73;;;;;;;;;;5092840;27;20380;-52
2023/07/12 10:29:11;;;;;;;3.03;1.33;;;;;;;;;;5087676;28;20071;-52
2023/07/12 10:31:43;;;;;;;5.05;1.27;;;;;;;;;;5096684;27;20099;-52
2023/07/12 10:34:18;;;;;;;2.80;1.63;;;;;;;;;;5092436;27;20040;-52
2023/07/12 10:36:46;;;;;;;3.05;1.02;;;;;;;;;;5091162;27;20041;-52
2023/07/12 10:39:12;;;;;;;4.05;1.33;;;;;;;;;;5091226;27;20071;-52
2023/07/12 10:41:43;;;;;;;2.85;0.98;;;;;;;;;;5091841;27;20037;-52
2023/07/12 10:44:15;;;;;;;2.38;1.30;;;;;;;;;;5091031;27;20051;-51
2023/07/12 10:46:43;;;;;;;2.70;1.10;;;;;;;;;;5090945;27;20056;-52
2023/07/12 10:49:13;;;;;;;3.20;1.15;;;;;;;;;;5092145;27;20581;-52
2023/07/12 10:51:41;;;;;;;4.45;1.00;;;;;;;;;;5090871;27;20849;-52
2023/07/12 10:54:36;;;;;;;2.17;0.98;;;;;;;;;;5091152;27;20101;-52
2023/07/12 10:57:05;;;;;;;1.45;0.80;;;;;;;;;;5074665;27;20044;-52
2023/07/12 10:59:40;;;;;;;4.07;1.17;;;;;;;;;;5091163;27;20083;-52
2023/07/12 11:02:06;;;;;;;2.22;0.80;;;;;;;;;;5091278;27;20539;-52
2023/07/12 11:04:32;;;;;;;1.60;0.70;;;;;;;;;;5090779;27;20041;-52
2023/07/12 11:07:00;;;;;;;2.65;1.20;;;;;;;;;;5091841;27;20043;-52
2023/07/12 11:09:47;;;;;;;3.72;0.98;;;;;;;;;;5090783;27;20076;-52
2023/07/12 11:12:14;;;;;;;6.07;1.92;;;;;;;;;;5090950;27;20530;-52
2023/07/12 11:14:41;;;;;;;1.85;1.13;;;;;;;;;;5090071;27;20040;-52
2023/07/12 11:17:07;;;;;;;5.32;1.60;;;;;;;;;;5091015;27;20052;-52
2023/07/12 11:19:37;;;;;;;5.32;1.23;;;;;;;;;;5091145;27;20258;-52
2023/07/12 11:22:05;;;;;;;1.98;1.05;;;;;;;;;;5089891;27;20490;-52
2023/07/12 11:24:36;;;;;;;1.00;0.85;;;;;;;;;;5091388;27;20040;-52
2023/07/12 11:27:02;;;;;;;3.53;1.65;;;;;;;;;;5090721;27;20052;-52
2023/07/12 11:29:31;;;;;;;3.80;0.90;;;;;;;;;;5091593;27;20514;-52
2023/07/12 11:32:12;;;;;;;4.43;1.30;;;;;;;;;;5090558;27;20428;-52
2023/07/12 11:34:40;;;;;;;1.67;0.77;;;;;;;;;;5090995;27;20056;-52
2023/07/12 11:37:15;;;;;;;4.20;1.58;;;;;;;;;;5085522;27;20535;-52
2023/07/12 11:39:44;;;;;;;4.32;1.17;;;;;;;;;;5090478;27;20040;-52
2023/07/12 11:42:26;;;;;;;2.47;1.70;;;;;;;;;;5089985;27;20127;-52
2023/07/12 11:45:19;;;;;;;3.53;0.90;;;;;;;;;;5089971;27;20616;-52
2023/07/12 11:47:48;;;;;;;3.65;1.00;;;;;;;;;;5087454;27;20111;-52
2023/07/12 11:50:41;;;;;;;4.78;0.98;;;;;;;;;;5090993;27;20543;-52
2023/07/12 11:53:07;;;;;;;4.53;1.02;;;;;;;;;;5087624;27;20124;-52
2023/07/12 11:55:35;;;;;;;4.07;1.38;;;;;;;;;;5090333;27;20044;-52
2023/07/12 11:58:01;;;;;;;3.38;1.10;;;;;;;;;;5090206;27;20044;-53
2023/07/12 12:00:28;;;;;;;3.72;1.17;;;;;;;;;;5089990;27;20164;-52
2023/07/12 12:02:58;;;;;;;3.75;1.17;;;;;;;;;;5090970;27;21606;-53
2023/07/12 12:05:30;;;;;;;2.05;1.20;;;;;;;;;;5090561;27;20127;-52
2023/07/12 12:07:59;;;;;;;2.90;0.90;;;;;;;;;;5090551;27;20040;-52
2023/07/12 12:10:27;;;;;;;1.33;0.80;;;;;;;;;;5079833;28;20089;-52
2023/07/12 12:12:53;;;;;;;3.50;1.23;;;;;;;;;;5089371;27;20495;-52
2023/07/12 12:15:21;;;;;;;2.20;1.10;;;;;;;;;;5090933;27;20123;-52
2023/07/12 12:17:47;;;;;;;2.28;0.60;;;;;;;;;;5089397;27;20028;-52
2023/07/12 12:20:15;;;;;;;4.07;1.20;;;;;;;;;;5090367;27;20044;-52
2023/07/12 12:22:42;;;;;;;5.53;2.67;;;;;;;;;;5089800;27;20141;-52
2023/07/12 12:25:16;;;;;;;2.17;0.88;;;;;;;;;;5090792;27;20119;-52
2023/07/12 12:27:43;;;;;;;2.00;1.00;;;;;;;;;;5090253;27;20070;-52
2023/07/12 12:30:15;;;;;;;2.28;0.90;;;;;;;;;;5090060;27;20469;-52
2023/07/12 12:32:43;;;;;;;3.22;1.58;;;;;;;;;;5090098;27;20043;-52
2023/07/12 12:35:17;;;;;;;2.83;1.08;;;;;;;;;;5085910;27;20048;-52
2023/07/12 12:37:54;;;;;;;4.82;1.42;;;;;;;;;;5090077;27;20043;-52
2023/07/12 12:40:20;;;;;;;5.50;1.27;;;;;;;;;;5090273;27;20115;-52
2023/07/12 12:42:53;;;;;;;2.53;0.95;;;;;;;;;;5090365;27;20048;-52
2023/07/12 12:45:19;;;;;;;1.95;0.88;;;;;;;;;;5089588;27;20561;-52
2023/07/12 12:47:45;;;;;;;2.42;0.70;;;;;;;;;;5089550;27;20082;-52
2023/07/12 12:50:18;;;;;;;4.18;1.20;;;;;;;;;;5088614;27;20536;-52
2023/07/12 12:52:44;;;;;;;3.40;1.77;;;;;;;;;;5089646;27;20051;-52
2023/07/12 12:55:11;;;;;;;3.28;1.02;;;;;;;;;;5090396;27;20044;-52
2023/07/12 12:57:38;;;;;;;6.35;1.58;;;;;;;;;;5090291;27;20102;-52
2023/07/12 13:00:08;;;;;;;2.50;1.08;;;;;;;;;;5089686;27;20364;-52
2023/07/12 13:02:35;;;;;;;3.15;1.23;;;;;;;;;;5088853;27;20068;-52
2023/07/12 13:05:01;;;;;;;1.50;0.70;;;;;;;;;;5089472;27;20041;-52
2023/07/12 13:07:27;;;;;;;1.60;0.57;;;;;;;;;;5089993;27;20459;-52
2023/07/12 13:09:54;;;;;;;4.32;0.90;;;;;;;;;;5089190;27;20040;-52
2023/07/12 13:12:21;;;;;;;5.32;1.15;;;;;;;;;;5089706;27;20045;-52
2023/07/12 13:14:48;;;;;;;3.53;1.30;;;;;;;;;;5088950;27;21009;-52
2023/07/12 13:17:32;;;;;;;3.17;1.05;;;;;;;;;;5089745;27;20519;-52
2023/07/12 13:19:58;;;;;;;1.75;0.95;;;;;;;;;;5089326;27;20618;-52
2023/07/12 13:22:26;;;;;;;2.88;0.90;;;;;;;;;;5088831;27;20047;-52
2023/07/12 13:24:56;;;;;;;3.10;1.30;;;;;;;;;;5090412;27;20051;-52
2023/07/12 13:27:22;;;;;;;2.10;0.80;;;;;;;;;;5092570;27;20040;-52
2023/07/12 13:29:48;;;;;;;2.75;0.98;;;;;;;;;;5093512;27;20101;-52
2023/07/12 13:32:15;;;;;;;2.20;0.80;;;;;;;;;;5092289;27;20044;-52
2023/07/12 13:34:42;;;;;;;4.05;1.65;;;;;;;;;;5093785;27;20091;-52
2023/07/12 13:37:23;;;;;;;4.15;1.00;;;;;;;;;;5091691;27;20045;-52
2023/07/12 13:39:49;;;;;;;1.67;0.97;;;;;;;;;;5093129;27;20064;-52
2023/07/12 13:42:15;;;;;;;2.10;1.02;;;;;;;;;;5092519;27;20248;-52
2023/07/12 13:44:42;;;;;;;2.63;0.98;;;;;;;;;;5092984;27;20040;-52
2023/07/12 13:47:10;;;;;;;2.42;1.08;;;;;;;;;;5092072;27;20055;-52
2023/07/12 13:49:37;;;;;;;4.32;1.45;;;;;;;;;;5092917;27;20552;-52
2023/07/12 13:52:03;;;;;;;2.53;0.95;;;;;;;;;;5092209;27;20589;-52
2023/07/12 13:54:29;;;;;;;3.03;1.05;;;;;;;;;;5092001;27;20831;-52
2023/07/12 13:56:55;;;;;;;1.85;1.05;;;;;;;;;;5092019;27;20050;-52
2023/07/12 13:59:21;;;;;;;2.35;1.27;;;;;;;;;;5091855;27;20047;-52
2023/07/12 14:01:47;;;;;;;3.75;1.23;;;;;;;;;;5091931;27;20050;-52
2023/07/12 14:04:14;;;;;;;2.28;1.20;;;;;;;;;;5092224;27;20043;-52
2023/07/12 14:06:40;;;;;;;4.20;1.17;;;;;;;;;;5092920;27;20065;-52
2023/07/12 14:09:06;;;;;;;3.50;1.25;;;;;;;;;;5081366;28;20666;-52
2023/07/12 14:11:33;;;;;;;3.75;1.02;;;;;;;;;;5091663;27;20120;-52
2023/07/12 14:13:59;;;;;;;1.05;0.82;;;;;;;;;;5092147;27;20040;-52
2023/07/12 14:16:26;;;;;;;2.95;0.98;;;;;;;;;;5092035;27;20144;-52
2023/07/12 14:18:52;;;;;;;1.90;1.05;;;;;;;;;;5090955;27;20043;-52
2023/07/12 14:21:20;;;;;;;3.03;1.15;;;;;;;;;;5092009;27;20178;-52
2023/07/12 14:23:46;;;;;;;2.75;0.85;;;;;;;;;;5091464;27;20045;-52
2023/07/12 14:26:20;;;;;;;4.80;1.17;;;;;;;;;;5092599;27;20036;-52
2023/07/12 14:28:49;;;;;;;3.20;1.00;;;;;;;;;;5080109;27;20143;-52
2023/07/12 14:31:17;;;;;;;4.45;1.10;;;;;;;;;;5091578;27;20088;-52
2023/07/12 14:33:44;;;;;;;4.47;1.58;;;;;;;;;;5091405;27;20050;-52
2023/07/12 14:36:14;;;;;;;3.95;1.27;;;;;;;;;;5091128;27;20044;-52
2023/07/12 14:38:43;;;;;;;5.07;1.13;;;;;;;;;;5091926;27;20040;-52
2023/07/12 14:41:13;;;;;;;4.32;1.63;;;;;;;;;;5092020;27;20044;-52
2023/07/12 14:43:39;;;;;;;1.95;1.23;;;;;;;;;;5091419;27;20037;-52
2023/07/12 14:46:05;;;;;;;3.92;1.00;;;;;;;;;;5092133;27;20342;-52
2023/07/12 14:48:32;;;;;;;3.00;1.55;;;;;;;;;;5091441;27;20242;-52
2023/07/12 14:50:58;;;;;;;2.03;1.20;;;;;;;;;;5092121;27;20137;-52
2023/07/12 14:53:24;;;;;;;2.28;1.10;;;;;;;;;;5090983;27;20051;-52
2023/07/12 14:55:50;;;;;;;5.43;0.88;;;;;;;;;;5091170;27;20043;-52
2023/07/12 14:58:17;;;;;;;6.22;1.17;;;;;;;;;;5090854;27;20036;-52
2023/07/12 15:00:43;;;;;;;1.15;0.77;;;;;;;;;;5091326;27;20082;-52